sensor_id;sensor_type;location;lat;lon;timestamp;pressure;altitude;pressure_sealevel;temperature;humidity
62800;BME280;48842;51.046;13.796;2023-02-17T00:01:21;100884.34;;;8.82;58.52
62800;BME280;48842;51.046;13.796;2023-02-17T00:03:51;100882.63;;;8.82;58.41
62800;BME280;48842;51.046;13.796;2023-02-17T00:06:18;100874.81;;;8.84;58.44
62800;BME280;48842;51.046;13.796;2023-02-17T00:08:44;100881.81;;;8.85;58.21
62800;BME280;48842;51.046;13.796;2023-02-17T00:11:10;100889.69;;;8.86;58.43
62800;BME280;48842;51.046;13.796;2023-02-17T00:13:35;100887.97;;;8.88;58.72
62800;BME280;48842;51.046;13.796;2023-02-17T00:16:27;100891.44;;;8.89;58.87
62800;BME280;48842;51.046;13.796;2023-02-17T00:18:55;100890.59;;;8.90;58.43
62800;BME280;48842;51.046;13.796;2023-02-17T00:21:23;100890.66;;;8.93;58.67
62800;BME280;48842;51.046;13.796;2023-02-17T00:23:48;100888.97;;;8.95;58.68
62800;BME280;48842;51.046;13.796;2023-02-17T00:26:15;100883.81;;;8.98;58.54
62800;BME280;48842;51.046;13.796;2023-02-17T00:28:40;100885.56;;;9.01;58.84
62800;BME280;48842;51.046;13.796;2023-02-17T00:31:07;100874.28;;;9.02;58.94
62800;BME280;48842;51.046;13.796;2023-02-17T00:33:32;100877.81;;;9.04;58.87
62800;BME280;48842;51.046;13.796;2023-02-17T00:35:58;100871.75;;;9.06;58.74
62800;BME280;48842;51.046;13.796;2023-02-17T00:38:23;100868.31;;;9.09;58.71
62800;BME280;48842;51.046;13.796;2023-02-17T00:40:49;100870.09;;;9.10;58.99
62800;BME280;48842;51.046;13.796;2023-02-17T00:43:14;100864.00;;;9.11;58.95
62800;BME280;48842;51.046;13.796;2023-02-17T00:45:39;100869.31;;;9.14;59.12
62800;BME280;48842;51.046;13.796;2023-02-17T00:48:04;100867.56;;;9.16;58.98
62800;BME280;48842;51.046;13.796;2023-02-17T00:50:30;100866.75;;;9.19;59.00
62800;BME280;48842;51.046;13.796;2023-02-17T00:52:55;100868.50;;;9.20;58.89
62800;BME280;48842;51.046;13.796;2023-02-17T00:55:20;100867.69;;;9.22;58.97
62800;BME280;48842;51.046;13.796;2023-02-17T00:57:45;100861.63;;;9.23;58.92
62800;BME280;48842;51.046;13.796;2023-02-17T01:00:11;100861.66;;;9.26;58.75
62800;BME280;48842;51.046;13.796;2023-02-17T01:02:36;100856.50;;;9.30;58.88
62800;BME280;48842;51.046;13.796;2023-02-17T01:05:02;100859.13;;;9.31;58.97
62800;BME280;48842;51.046;13.796;2023-02-17T01:07:27;100851.31;;;9.33;59.12
62800;BME280;48842;51.046;13.796;2023-02-17T01:09:52;100863.53;;;9.34;59.17
62800;BME280;48842;51.046;13.796;2023-02-17T01:12:18;100860.91;;;9.34;58.84
62800;BME280;48842;51.046;13.796;2023-02-17T01:14:43;100858.34;;;9.35;58.89
62800;BME280;48842;51.046;13.796;2023-02-17T01:17:08;100856.59;;;9.36;58.90
62800;BME280;48842;51.046;13.796;2023-02-17T01:19:33;100843.53;;;9.37;58.83
62800;BME280;48842;51.046;13.796;2023-02-17T01:21:59;100841.81;;;9.38;58.78
62800;BME280;48842;51.046;13.796;2023-02-17T01:24:24;100843.59;;;9.39;58.49
62800;BME280;48842;51.046;13.796;2023-02-17T01:26:49;100844.47;;;9.39;58.81
62800;BME280;48842;51.046;13.796;2023-02-17T01:29:14;100853.19;;;9.40;58.74
62800;BME280;48842;51.046;13.796;2023-02-17T01:31:40;100838.38;;;9.39;58.84
62800;BME280;48842;51.046;13.796;2023-02-17T01:34:05;100832.25;;;9.40;58.69
62800;BME280;48842;51.046;13.796;2023-02-17T01:36:31;100829.63;;;9.38;58.81
62800;BME280;48842;51.046;13.796;2023-02-17T01:38:56;100823.53;;;9.39;58.71
62800;BME280;48842;51.046;13.796;2023-02-17T01:41:23;100831.41;;;9.41;58.78
62800;BME280;48842;51.046;13.796;2023-02-17T01:44:13;100827.06;;;9.41;58.46
62800;BME280;48842;51.046;13.796;2023-02-17T01:46:42;100829.66;;;9.41;58.31
62800;BME280;48842;51.046;13.796;2023-02-17T01:49:23;100831.41;;;9.41;58.63
62800;BME280;48842;51.046;13.796;2023-02-17T01:51:54;100827.06;;;9.43;58.72
62800;BME280;48842;51.046;13.796;2023-02-17T01:54:25;100825.38;;;9.43;58.64
62800;BME280;48842;51.046;13.796;2023-02-17T01:56:53;100824.50;;;9.44;58.59
62800;BME280;48842;51.046;13.796;2023-02-17T01:59:20;100815.78;;;9.44;58.32
62800;BME280;48842;51.046;13.796;2023-02-17T02:01:48;100816.63;;;9.44;58.42
62800;BME280;48842;51.046;13.796;2023-02-17T02:04:17;100811.41;;;9.44;58.48
62800;BME280;48842;51.046;13.796;2023-02-17T02:06:44;100804.47;;;9.45;58.44
62800;BME280;48842;51.046;13.796;2023-02-17T02:09:20;100801.88;;;9.47;58.25
62800;BME280;48842;51.046;13.796;2023-02-17T02:11:50;100786.19;;;9.47;58.58
62800;BME280;48842;51.046;13.796;2023-02-17T02:14:17;100784.44;;;9.47;58.50
62800;BME280;48842;51.046;13.796;2023-02-17T02:25:30;100763.53;;;9.47;58.80
62800;BME280;48842;51.046;13.796;2023-02-17T02:33:34;100750.38;;;9.42;58.35
62800;BME280;48842;51.046;13.796;2023-02-17T02:41:21;100740.75;;;9.40;58.59
62800;BME280;48842;51.046;13.796;2023-02-17T02:43:47;100738.13;;;9.38;58.30
62800;BME280;48842;51.046;13.796;2023-02-17T02:46:14;100729.38;;;9.36;58.48
62800;BME280;48842;51.046;13.796;2023-02-17T02:48:39;100731.06;;;9.34;58.50
62800;BME280;48842;51.046;13.796;2023-02-17T02:53:48;100721.47;;;9.32;58.57
62800;BME280;48842;51.046;13.796;2023-02-17T02:59:57;100701.41;;;9.31;58.98
62800;BME280;48842;51.046;13.796;2023-02-17T03:02:20;100704.88;;;9.30;59.22
62800;BME280;48842;51.046;13.796;2023-02-17T03:04:57;100712.72;;;9.30;59.10
62800;BME280;48842;51.046;13.796;2023-02-17T03:08:37;100721.34;;;9.25;59.07
62800;BME280;48842;51.046;13.796;2023-02-17T03:10:29;100719.63;;;9.26;59.37
62800;BME280;48842;51.046;13.796;2023-02-17T03:12:55;100708.28;;;9.25;59.43
62800;BME280;48842;51.046;13.796;2023-02-17T03:15:28;100705.66;;;9.25;59.96
62800;BME280;48842;51.046;13.796;2023-02-17T03:17:58;100707.41;;;9.25;59.69
62800;BME280;48842;51.046;13.796;2023-02-17T03:20:26;100700.41;;;9.22;60.31
62800;BME280;48842;51.046;13.796;2023-02-17T03:22:54;100709.06;;;9.20;61.37
62800;BME280;48842;51.046;13.796;2023-02-17T03:25:20;100700.66;;;9.39;62.28
62800;BME280;48842;51.046;13.796;2023-02-17T03:27:45;100696.66;;;9.66;62.00
62800;BME280;48842;51.046;13.796;2023-02-17T03:30:11;100682.09;;;9.85;62.05
62800;BME280;48842;51.046;13.796;2023-02-17T03:32:36;100690.16;;;10.04;61.64
62800;BME280;48842;51.046;13.796;2023-02-17T03:35:01;100682.47;;;10.18;61.38
62800;BME280;48842;51.046;13.796;2023-02-17T03:37:27;100674.75;;;10.28;61.17
62800;BME280;48842;51.046;13.796;2023-02-17T03:39:52;100679.31;;;10.45;60.55
62800;BME280;48842;51.046;13.796;2023-02-17T03:42:19;100681.94;;;10.48;60.59
62800;BME280;48842;51.046;13.796;2023-02-17T03:44:44;100675.16;;;10.69;59.86
62800;BME280;48842;51.046;13.796;2023-02-17T03:47:10;100676.97;;;10.76;59.87
62800;BME280;48842;51.046;13.796;2023-02-17T03:49:35;100684.91;;;10.82;59.59
62800;BME280;48842;51.046;13.796;2023-02-17T03:52:00;100669.22;;;10.88;59.18
62800;BME280;48842;51.046;13.796;2023-02-17T03:54:26;100671.88;;;10.94;59.49
62800;BME280;48842;51.046;13.796;2023-02-17T03:56:51;100667.50;;;10.96;59.47
62800;BME280;48842;51.046;13.796;2023-02-17T03:59:16;100656.22;;;11.04;59.28
62800;BME280;48842;51.046;13.796;2023-02-17T04:01:42;100663.19;;;11.00;59.04
62800;BME280;48842;51.046;13.796;2023-02-17T04:04:07;100668.41;;;10.97;59.08
62800;BME280;48842;51.046;13.796;2023-02-17T04:06:33;100649.25;;;11.03;59.18
62800;BME280;48842;51.046;13.796;2023-02-17T04:08:58;100671.94;;;11.04;59.13
62800;BME280;48842;51.046;13.796;2023-02-17T04:11:23;100660.56;;;10.98;59.55
62800;BME280;48842;51.046;13.796;2023-02-17T04:13:48;100668.44;;;11.03;59.52
62800;BME280;48842;51.046;13.796;2023-02-17T04:16:14;100675.47;;;11.06;59.51
62800;BME280;48842;51.046;13.796;2023-02-17T04:18:39;100661.44;;;11.04;60.03
62800;BME280;48842;51.046;13.796;2023-02-17T04:21:05;100668.50;;;11.09;60.01
62800;BME280;48842;51.046;13.796;2023-02-17T04:23:30;100678.97;;;11.06;60.62
62800;BME280;48842;51.046;13.796;2023-02-17T04:25:56;100679.78;;;10.99;61.40
62800;BME280;48842;51.046;13.796;2023-02-17T04:28:21;100670.16;;;10.98;61.84
62800;BME280;48842;51.046;13.796;2023-02-17T04:30:48;100674.53;;;10.97;61.79
62800;BME280;48842;51.046;13.796;2023-02-17T04:33:14;100672.69;;;10.87;62.84
62800;BME280;48842;51.046;13.796;2023-02-17T04:35:40;100676.09;;;10.75;64.13
62800;BME280;48842;51.046;13.796;2023-02-17T04:38:06;100672.63;;;10.79;63.83
62800;BME280;48842;51.046;13.796;2023-02-17T04:40:31;100666.50;;;10.79;63.66
62800;BME280;48842;51.046;13.796;2023-02-17T04:42:57;100663.94;;;10.82;62.98
62800;BME280;48842;51.046;13.796;2023-02-17T04:45:22;100671.78;;;10.82;63.70
62800;BME280;48842;51.046;13.796;2023-02-17T04:47:48;100665.66;;;10.81;63.61
62800;BME280;48842;51.046;13.796;2023-02-17T04:50:13;100660.44;;;10.83;63.54
62800;BME280;48842;51.046;13.796;2023-02-17T04:52:39;100657.81;;;10.83;63.27
62800;BME280;48842;51.046;13.796;2023-02-17T04:55:05;100656.03;;;10.80;63.92
62800;BME280;48842;51.046;13.796;2023-02-17T04:57:30;100656.09;;;10.83;63.38
62800;BME280;48842;51.046;13.796;2023-02-17T04:59:56;100646.47;;;10.82;63.70
62800;BME280;48842;51.046;13.796;2023-02-17T05:02:21;100644.69;;;10.80;63.82
62800;BME280;48842;51.046;13.796;2023-02-17T05:04:46;100642.06;;;10.80;63.53
62800;BME280;48842;51.046;13.796;2023-02-17T05:07:12;100641.19;;;10.76;63.78
62800;BME280;48842;51.046;13.796;2023-02-17T05:09:37;100644.69;;;10.80;63.76
62800;BME280;48842;51.046;13.796;2023-02-17T05:12:03;100634.19;;;10.78;63.82
62800;BME280;48842;51.046;13.796;2023-02-17T05:14:30;100636.81;;;10.80;63.60
62800;BME280;48842;51.046;13.796;2023-02-17T05:16:55;100635.97;;;10.84;63.71
62800;BME280;48842;51.046;13.796;2023-02-17T05:19:21;100641.22;;;10.86;63.67
62800;BME280;48842;51.046;13.796;2023-02-17T05:21:46;100646.50;;;10.87;64.04
62800;BME280;48842;51.046;13.796;2023-02-17T05:24:11;100643.84;;;10.86;64.14
62800;BME280;48842;51.046;13.796;2023-02-17T05:26:36;100637.78;;;10.88;63.96
62800;BME280;48842;51.046;13.796;2023-02-17T05:29:02;100640.31;;;10.80;65.35
62800;BME280;48842;51.046;13.796;2023-02-17T05:31:27;100635.09;;;10.82;64.74
62800;BME280;48842;51.046;13.796;2023-02-17T05:33:53;100632.50;;;10.82;65.31
62800;BME280;48842;51.046;13.796;2023-02-17T05:36:19;100629.81;;;10.80;65.78
62800;BME280;48842;51.046;13.796;2023-02-17T05:38:44;100623.75;;;10.83;65.04
62800;BME280;48842;51.046;13.796;2023-02-17T05:41:13;100622.00;;;10.83;65.36
62800;BME280;48842;51.046;13.796;2023-02-17T05:43:38;100621.13;;;10.85;65.19
62800;BME280;48842;51.046;13.796;2023-02-17T05:46:04;100618.50;;;10.86;65.10
62800;BME280;48842;51.046;13.796;2023-02-17T05:48:30;100618.53;;;10.89;65.27
62800;BME280;48842;51.046;13.796;2023-02-17T05:50:55;100612.44;;;10.92;65.35
62800;BME280;48842;51.046;13.796;2023-02-17T05:53:21;100608.97;;;10.94;65.30
62800;BME280;48842;51.046;13.796;2023-02-17T05:55:46;100608.13;;;10.98;64.76
62800;BME280;48842;51.046;13.796;2023-02-17T05:58:11;100609.91;;;11.01;64.96
62800;BME280;48842;51.046;13.796;2023-02-17T06:00:36;100606.38;;;10.97;65.59
62800;BME280;48842;51.046;13.796;2023-02-17T06:03:02;100605.50;;;10.97;65.60
62800;BME280;48842;51.046;13.796;2023-02-17T06:05:27;100604.59;;;10.96;65.74
62800;BME280;48842;51.046;13.796;2023-02-17T06:07:52;100610.75;;;10.98;65.25
62800;BME280;48842;51.046;13.796;2023-02-17T06:10:18;100600.28;;;10.98;65.18
62800;BME280;48842;51.046;13.796;2023-02-17T06:12:43;100606.41;;;11.02;65.23
62800;BME280;48842;51.046;13.796;2023-02-17T06:15:08;100606.41;;;11.07;65.13
62800;BME280;48842;51.046;13.796;2023-02-17T06:17:34;100604.69;;;11.06;65.31
62800;BME280;48842;51.046;13.796;2023-02-17T06:19:59;100606.41;;;11.07;65.67
62800;BME280;48842;51.046;13.796;2023-02-17T06:22:24;100603.78;;;11.07;65.17
62800;BME280;48842;51.046;13.796;2023-02-17T06:24:50;100609.09;;;11.11;65.15
62800;BME280;48842;51.046;13.796;2023-02-17T06:27:15;100602.09;;;11.13;65.13
62800;BME280;48842;51.046;13.796;2023-02-17T06:29:40;100603.00;;;11.17;64.77
62800;BME280;48842;51.046;13.796;2023-02-17T06:32:05;100602.09;;;11.15;65.39
62800;BME280;48842;51.046;13.796;2023-02-17T06:34:31;100606.50;;;11.16;64.76
62800;BME280;48842;51.046;13.796;2023-02-17T06:36:56;100603.00;;;11.17;64.71
62800;BME280;48842;51.046;13.796;2023-02-17T06:39:21;100608.25;;;11.17;64.72
62800;BME280;48842;51.046;13.796;2023-02-17T06:41:47;100617.00;;;11.19;64.46
62800;BME280;48842;51.046;13.796;2023-02-17T06:44:12;100603.91;;;11.21;64.58
62800;BME280;48842;51.046;13.796;2023-02-17T06:46:37;100596.84;;;11.13;64.77
62800;BME280;48842;51.046;13.796;2023-02-17T06:49:02;100603.84;;;11.08;64.70
62800;BME280;48842;51.046;13.796;2023-02-17T06:51:28;100609.13;;;11.17;64.91
62800;BME280;48842;51.046;13.796;2023-02-17T06:53:53;100605.66;;;11.23;64.26
62800;BME280;48842;51.046;13.796;2023-02-17T06:56:19;100589.94;;;11.28;64.43
62800;BME280;48842;51.046;13.796;2023-02-17T06:58:44;100606.53;;;11.28;64.02
62800;BME280;48842;51.046;13.796;2023-02-17T07:01:17;100589.09;;;11.29;63.85
62800;BME280;48842;51.046;13.796;2023-02-17T07:03:43;100588.19;;;11.30;64.26
62800;BME280;48842;51.046;13.796;2023-02-17T07:06:09;100589.97;;;11.37;63.98
62800;BME280;48842;51.046;13.796;2023-02-17T07:08:34;100586.50;;;11.38;63.86
62800;BME280;48842;51.046;13.796;2023-02-17T07:11:07;100596.13;;;11.38;63.99
62800;BME280;48842;51.046;13.796;2023-02-17T07:13:32;100604.00;;;11.41;63.76
62800;BME280;48842;51.046;13.796;2023-02-17T07:15:58;100597.84;;;11.37;63.74
62800;BME280;48842;51.046;13.796;2023-02-17T07:18:23;100604.88;;;11.43;63.64
62800;BME280;48842;51.046;13.796;2023-02-17T07:20:48;100597.84;;;11.39;63.64
62800;BME280;48842;51.046;13.796;2023-02-17T07:23:14;100592.63;;;11.42;63.50
62800;BME280;48842;51.046;13.796;2023-02-17T07:25:39;100592.63;;;11.39;63.58
62800;BME280;48842;51.046;13.796;2023-02-17T07:28:05;100594.41;;;11.46;63.63
62800;BME280;48842;51.046;13.796;2023-02-17T07:30:30;100599.63;;;11.46;63.60
62800;BME280;48842;51.046;13.796;2023-02-17T07:32:55;100595.31;;;11.49;63.46
62800;BME280;48842;51.046;13.796;2023-02-17T07:35:21;100603.94;;;11.34;63.74
62800;BME280;48842;51.046;13.796;2023-02-17T07:37:46;100589.16;;;11.46;63.44
62800;BME280;48842;51.046;13.796;2023-02-17T07:40:12;100586.53;;;11.52;63.52
62800;BME280;48842;51.046;13.796;2023-02-17T07:42:37;100586.59;;;11.53;63.55
62800;BME280;48842;51.046;13.796;2023-02-17T07:45:03;100578.69;;;11.52;63.25
62800;BME280;48842;51.046;13.796;2023-02-17T07:47:28;100577.81;;;11.53;63.79
62800;BME280;48842;51.046;13.796;2023-02-17T07:49:53;100577.81;;;11.59;63.63
62800;BME280;48842;51.046;13.796;2023-02-17T07:52:19;100569.09;;;11.63;63.18
62800;BME280;48842;51.046;13.796;2023-02-17T07:54:44;100568.25;;;11.64;63.43
62800;BME280;48842;51.046;13.796;2023-02-17T07:57:09;100572.63;;;11.67;63.65
62800;BME280;48842;51.046;13.796;2023-02-17T07:59:35;100567.38;;;11.72;63.56
62800;BME280;48842;51.046;13.796;2023-02-17T08:02:00;100562.13;;;11.68;63.50
62800;BME280;48842;51.046;13.796;2023-02-17T08:04:26;100557.75;;;11.70;62.93
62800;BME280;48842;51.046;13.796;2023-02-17T08:06:52;100560.38;;;11.70;63.57
62800;BME280;48842;51.046;13.796;2023-02-17T08:09:17;100564.75;;;11.68;63.17
62800;BME280;48842;51.046;13.796;2023-02-17T08:12:01;100562.13;;;11.70;63.37
62800;BME280;48842;51.046;13.796;2023-02-17T08:14:45;100574.34;;;11.68;63.58
62800;BME280;48842;51.046;13.796;2023-02-17T08:17:10;100572.63;;;11.72;63.30
62800;BME280;48842;51.046;13.796;2023-02-17T08:19:35;100586.63;;;11.69;63.32
62800;BME280;48842;51.046;13.796;2023-02-17T08:22:01;100592.78;;;11.76;63.41
62800;BME280;48842;51.046;13.796;2023-02-17T08:24:27;100597.97;;;11.69;63.63
62800;BME280;48842;51.046;13.796;2023-02-17T08:26:53;100588.38;;;11.70;63.85
62800;BME280;48842;51.046;13.796;2023-02-17T08:29:19;100592.72;;;11.60;63.53
62800;BME280;48842;51.046;13.796;2023-02-17T08:31:45;100584.91;;;11.73;63.17
62800;BME280;48842;51.046;13.796;2023-02-17T08:34:14;100594.53;;;11.80;63.44
62800;BME280;48842;51.046;13.796;2023-02-17T08:36:40;100587.53;;;11.85;63.00
62800;BME280;48842;51.046;13.796;2023-02-17T08:39:10;100594.53;;;11.80;63.08
62800;BME280;48842;51.046;13.796;2023-02-17T08:41:37;100585.81;;;11.88;63.13
62800;BME280;48842;51.046;13.796;2023-02-17T08:44:07;100585.81;;;11.90;62.35
62800;BME280;48842;51.046;13.796;2023-02-17T08:46:34;100588.41;;;11.87;62.37
62800;BME280;48842;51.046;13.796;2023-02-17T08:48:59;100582.31;;;11.90;62.46
62800;BME280;48842;51.046;13.796;2023-02-17T08:51:25;100590.16;;;11.85;63.00
62800;BME280;48842;51.046;13.796;2023-02-17T08:53:52;100580.56;;;11.90;62.38
62800;BME280;48842;51.046;13.796;2023-02-17T08:56:19;100584.94;;;11.93;62.68
62800;BME280;48842;51.046;13.796;2023-02-17T08:58:45;100591.06;;;11.90;62.43
62800;BME280;48842;51.046;13.796;2023-02-17T09:01:10;100575.34;;;11.93;62.60
62800;BME280;48842;51.046;13.796;2023-02-17T09:03:36;100574.50;;;11.99;61.86
62800;BME280;48842;51.046;13.796;2023-02-17T09:06:02;100577.13;;;12.00;61.88
62800;BME280;48842;51.046;13.796;2023-02-17T09:08:28;100567.50;;;12.04;61.64
62800;BME280;48842;51.046;13.796;2023-02-17T09:10:53;100564.88;;;12.05;61.60
62800;BME280;48842;51.046;13.796;2023-02-17T09:13:18;100563.09;;;12.06;61.28
62800;BME280;48842;51.046;13.796;2023-02-17T09:15:44;100554.34;;;12.09;61.64
62800;BME280;48842;51.046;13.796;2023-02-17T09:18:09;100548.25;;;12.20;61.16
62800;BME280;48842;51.046;13.796;2023-02-17T09:20:36;100549.13;;;12.27;61.34
62800;BME280;48842;51.046;13.796;2023-02-17T09:23:01;100543.88;;;12.27;61.12
62800;BME280;48842;51.046;13.796;2023-02-17T09:25:27;100548.25;;;12.22;60.71
62800;BME280;48842;51.046;13.796;2023-02-17T09:27:52;100544.75;;;12.37;60.64
62800;BME280;48842;51.046;13.796;2023-02-17T09:30:47;100535.13;;;12.44;60.12
62800;BME280;48842;51.046;13.796;2023-02-17T09:33:17;100541.25;;;12.49;60.11
62800;BME280;48842;51.046;13.796;2023-02-17T09:35:43;100542.13;;;12.60;59.93
62800;BME280;48842;51.046;13.796;2023-02-17T09:38:08;100545.63;;;12.56;59.90
62800;BME280;48842;51.046;13.796;2023-02-17T09:40:44;100541.22;;;12.61;59.49
62800;BME280;48842;51.046;13.796;2023-02-17T09:43:14;100540.34;;;12.73;59.79
62800;BME280;48842;51.046;13.796;2023-02-17T09:45:41;100537.72;;;12.82;59.40
62800;BME280;48842;51.046;13.796;2023-02-17T09:48:10;100533.28;;;12.89;59.17
62800;BME280;48842;51.046;13.796;2023-02-17T09:53:42;100512.25;;;12.98;58.32
62800;BME280;48842;51.046;13.796;2023-02-17T09:56:14;100508.72;;;12.96;58.72
62800;BME280;48842;51.046;13.796;2023-02-17T09:58:49;100506.13;;;12.88;58.24
62800;BME280;48842;51.046;13.796;2023-02-17T10:01:19;100500.00;;;12.91;57.59
62800;BME280;48842;51.046;13.796;2023-02-17T10:03:52;100498.25;;;12.90;57.83
62800;BME280;48842;51.046;13.796;2023-02-17T10:06:40;100502.63;;;12.96;57.50
62800;BME280;48842;51.046;13.796;2023-02-17T10:14:40;100489.44;;;13.00;57.07
62800;BME280;48842;51.046;13.796;2023-02-17T10:17:30;100483.25;;;13.14;56.94
62800;BME280;48842;51.046;13.796;2023-02-17T10:20:06;100495.50;;;13.19;57.01
62800;BME280;48842;51.046;13.796;2023-02-17T10:22:33;100484.09;;;13.25;56.62
62800;BME280;48842;51.046;13.796;2023-02-17T10:25:00;100493.75;;;13.23;56.40
62800;BME280;48842;51.046;13.796;2023-02-17T10:27:35;100492.00;;;13.22;56.73
62800;BME280;48842;51.046;13.796;2023-02-17T10:35:41;100474.41;;;13.36;56.50
62800;BME280;48842;51.046;13.796;2023-02-17T10:40:49;100448.09;;;13.27;56.23
62800;BME280;48842;51.046;13.796;2023-02-17T10:43:21;100442.84;;;13.36;56.47
62800;BME280;48842;51.046;13.796;2023-02-17T10:45:48;100428.72;;;13.50;56.28
62800;BME280;48842;51.046;13.796;2023-02-17T10:48:19;100427.81;;;13.54;56.11
62800;BME280;48842;51.046;13.796;2023-02-17T10:50:47;100419.84;;;13.63;56.64
62800;BME280;48842;51.046;13.796;2023-02-17T10:53:21;100418.97;;;13.64;55.82
62800;BME280;48842;51.046;13.796;2023-02-17T10:55:56;100416.34;;;13.66;56.05
62800;BME280;48842;51.046;13.796;2023-02-17T10:58:51;100422.50;;;13.60;55.88
62800;BME280;48842;51.046;13.796;2023-02-17T11:01:20;100413.66;;;13.69;56.07
62800;BME280;48842;51.046;13.796;2023-02-17T11:04:01;100404.03;;;13.66;56.14
62800;BME280;48842;51.046;13.796;2023-02-17T11:06:26;100403.13;;;13.70;56.23
62800;BME280;48842;51.046;13.796;2023-02-17T11:09:01;100394.38;;;13.67;56.12
62800;BME280;48842;51.046;13.796;2023-02-17T11:11:29;100381.22;;;13.70;56.21
62800;BME280;48842;51.046;13.796;2023-02-17T11:16:55;100383.81;;;13.71;56.33
62800;BME280;48842;51.046;13.796;2023-02-17T11:19:31;100381.22;;;13.70;56.52
62800;BME280;48842;51.046;13.796;2023-02-17T11:22:03;100373.31;;;13.67;56.53
62800;BME280;48842;51.046;13.796;2023-02-17T11:24:30;100364.53;;;13.68;56.55
62800;BME280;48842;51.046;13.796;2023-02-17T11:27:00;100366.31;;;13.67;56.77
62800;BME280;48842;51.046;13.796;2023-02-17T11:29:26;100346.09;;;13.68;56.95
62800;BME280;48842;51.046;13.796;2023-02-17T11:32:05;100356.66;;;13.66;57.31
62800;BME280;48842;51.046;13.796;2023-02-17T11:34:32;100330.38;;;13.60;57.95
62800;BME280;48842;51.046;13.796;2023-02-17T11:37:18;100341.88;;;13.50;58.76
62800;BME280;48842;51.046;13.796;2023-02-17T11:39:49;100326.06;;;13.53;58.94
62800;BME280;48842;51.046;13.796;2023-02-17T11:42:16;100317.25;;;13.57;58.88
62800;BME280;48842;51.046;13.796;2023-02-17T11:44:45;100318.09;;;13.59;58.75
62800;BME280;48842;51.046;13.796;2023-02-17T11:47:34;100326.88;;;13.63;58.86
62800;BME280;48842;51.046;13.796;2023-02-17T11:53:02;100311.06;;;13.63;58.79
62800;BME280;48842;51.046;13.796;2023-02-17T12:09:59;100296.94;;;13.71;59.23
62800;BME280;48842;51.046;13.796;2023-02-17T12:12:51;100296.00;;;13.75;59.35
62800;BME280;48842;51.046;13.796;2023-02-17T12:15:50;100283.81;;;13.68;59.57
62800;BME280;48842;51.046;13.796;2023-02-17T12:18:36;100277.53;;;13.82;59.53
62800;BME280;48842;51.046;13.796;2023-02-17T12:24:01;100266.88;;;13.92;59.44
62800;BME280;48842;51.046;13.796;2023-02-17T12:26:44;100264.22;;;13.94;59.43
62800;BME280;48842;51.046;13.796;2023-02-17T12:31:51;100264.16;;;14.00;59.49
62800;BME280;48842;51.046;13.796;2023-02-17T12:34:30;100234.28;;;14.03;59.32
62800;BME280;48842;51.046;13.796;2023-02-17T12:36:58;100236.81;;;14.10;59.18
62800;BME280;48842;51.046;13.796;2023-02-17T12:39:40;100252.56;;;14.17;59.26
62800;BME280;48842;51.046;13.796;2023-02-17T12:42:13;100232.25;;;14.23;59.13
62800;BME280;48842;51.046;13.796;2023-02-17T12:44:45;100232.19;;;14.28;58.99
62800;BME280;48842;51.046;13.796;2023-02-17T12:47:15;100218.06;;;14.35;58.94
62800;BME280;48842;51.046;13.796;2023-02-17T12:49:49;100229.41;;;14.40;58.99
62800;BME280;48842;51.046;13.796;2023-02-17T12:52:27;100235.53;;;14.42;58.57
62800;BME280;48842;51.046;13.796;2023-02-17T12:55:04;100228.47;;;14.46;58.83
62800;BME280;48842;51.046;13.796;2023-02-17T12:57:54;100220.63;;;14.41;58.91
62800;BME280;48842;51.046;13.796;2023-02-17T13:00:34;100215.38;;;14.41;58.66
62800;BME280;48842;51.046;13.796;2023-02-17T13:03:02;100210.94;;;14.43;58.80
62800;BME280;48842;51.046;13.796;2023-02-17T13:06:21;100198.56;;;14.48;58.45
62800;BME280;48842;51.046;13.796;2023-02-17T13:11:26;100201.19;;;14.48;58.32
62800;BME280;48842;51.046;13.796;2023-02-17T13:13:52;100194.19;;;14.47;59.10
62800;BME280;48842;51.046;13.796;2023-02-17T13:16:17;100188.78;;;14.55;58.70
62800;BME280;48842;51.046;13.796;2023-02-17T13:18:45;100190.53;;;14.56;58.45
62800;BME280;48842;51.046;13.796;2023-02-17T13:24:11;100185.88;;;14.75;58.27
62800;BME280;48842;51.046;13.796;2023-02-17T13:26:39;100194.56;;;14.80;58.15
62800;BME280;48842;51.046;13.796;2023-02-17T13:29:31;100191.06;;;14.81;57.83
62800;BME280;48842;51.046;13.796;2023-02-17T13:32:03;100176.97;;;14.84;57.74
62800;BME280;48842;51.046;13.796;2023-02-17T13:36:58;100160.38;;;14.76;57.65
62800;BME280;48842;51.046;13.796;2023-02-17T13:39:29;100167.28;;;14.83;57.55
62800;BME280;48842;51.046;13.796;2023-02-17T13:41:56;100161.09;;;14.86;57.22
62800;BME280;48842;51.046;13.796;2023-02-17T13:46:59;100169.81;;;14.92;57.52
62800;BME280;48842;51.046;13.796;2023-02-17T13:49:30;100154.78;;;14.96;57.08
62800;BME280;48842;51.046;13.796;2023-02-17T13:52:09;100154.84;;;14.93;56.74
62800;BME280;48842;51.046;13.796;2023-02-17T13:54:34;100146.84;;;14.97;56.96
62800;BME280;48842;51.046;13.796;2023-02-17T13:57:00;100136.28;;;14.97;57.08
62800;BME280;48842;51.046;13.796;2023-02-17T13:59:26;100143.44;;;14.89;56.87
62800;BME280;48842;51.046;13.796;2023-02-17T14:01:52;100135.44;;;14.95;56.99
62800;BME280;48842;51.046;13.796;2023-02-17T14:04:25;100132.72;;;15.00;56.67
62800;BME280;48842;51.046;13.796;2023-02-17T14:06:51;100140.56;;;15.05;56.56
62800;BME280;48842;51.046;13.796;2023-02-17T14:09:31;100124.66;;;15.08;56.10